sensor_id;sensor_type;location;lat;lon;timestamp;temperature;humidity
34147;DHT22;20423;49.448;9.056;2022-08-14T00:00:10;19.00;99.90
34147;DHT22;20423;49.448;9.056;2022-08-14T00:02:37;19.00;99.90
34147;DHT22;20423;49.448;9.056;2022-08-14T00:05:04;19.00;99.90
34147;DHT22;20423;49.448;9.056;2022-08-14T00:07:30;19.00;99.90
34147;DHT22;20423;49.448;9.056;2022-08-14T00:09:56;18.90;99.90
34147;DHT22;20423;49.448;9.056;2022-08-14T00:12:22;18.90;99.90
34147;DHT22;20423;49.448;9.056;2022-08-14T00:14:48;18.90;99.90
34147;DHT22;20423;49.448;9.056;2022-08-14T00:17:14;18.90;99.90
34147;DHT22;20423;49.448;9.056;2022-08-14T00:19:39;18.80;99.90
34147;DHT22;20423;49.448;9.056;2022-08-14T00:22:05;18.80;99.90
34147;DHT22;20423;49.448;9.056;2022-08-14T00:24:31;18.80;99.90
34147;DHT22;20423;49.448;9.056;2022-08-14T00:26:57;18.70;99.90
34147;DHT22;20423;49.448;9.056;2022-08-14T00:29:23;18.70;99.90
34147;DHT22;20423;49.448;9.056;2022-08-14T00:31:49;18.70;99.90
34147;DHT22;20423;49.448;9.056;2022-08-14T00:34:15;18.70;99.90
34147;DHT22;20423;49.448;9.056;2022-08-14T00:36:40;18.60;99.90
34147;DHT22;20423;49.448;9.056;2022-08-14T00:39:06;18.50;99.90
34147;DHT22;20423;49.448;9.056;2022-08-14T00:41:32;18.50;99.90
34147;DHT22;20423;49.448;9.056;2022-08-14T00:43:58;18.50;99.90
34147;DHT22;20423;49.448;9.056;2022-08-14T00:46:25;18.50;99.90
34147;DHT22;20423;49.448;9.056;2022-08-14T00:48:50;18.40;99.90
34147;DHT22;20423;49.448;9.056;2022-08-14T00:51:16;18.40;99.90
34147;DHT22;20423;49.448;9.056;2022-08-14T00:53:42;18.40;99.90
34147;DHT22;20423;49.448;9.056;2022-08-14T00:56:09;18.30;99.90
34147;DHT22;20423;49.448;9.056;2022-08-14T00:58:35;18.30;99.90
34147;DHT22;20423;49.448;9.056;2022-08-14T01:01:08;18.30;99.90
34147;DHT22;20423;49.448;9.056;2022-08-14T01:04:11;18.30;99.90
34147;DHT22;20423;49.448;9.056;2022-08-14T01:06:37;18.20;99.90
34147;DHT22;20423;49.448;9.056;2022-08-14T01:09:03;18.10;99.90
34147;DHT22;20423;49.448;9.056;2022-08-14T01:11:30;18.10;99.90
34147;DHT22;20423;49.448;9.056;2022-08-14T01:13:56;18.10;99.90
34147;DHT22;20423;49.448;9.056;2022-08-14T01:16:26;18.10;99.90
34147;DHT22;20423;49.448;9.056;2022-08-14T01:18:52;18.00;99.90
34147;DHT22;20423;49.448;9.056;2022-08-14T01:21:38;18.00;99.90
34147;DHT22;20423;49.448;9.056;2022-08-14T01:24:05;18.00;99.90
34147;DHT22;20423;49.448;9.056;2022-08-14T01:26:35;18.00;99.90
34147;DHT22;20423;49.448;9.056;2022-08-14T01:29:04;18.00;99.90
34147;DHT22;20423;49.448;9.056;2022-08-14T01:31:33;18.00;99.90
34147;DHT22;20423;49.448;9.056;2022-08-14T01:34:01;18.00;99.90
34147;DHT22;20423;49.448;9.056;2022-08-14T01:36:28;17.90;99.90
34147;DHT22;20423;49.448;9.056;2022-08-14T01:39:10;17.90;99.90
34147;DHT22;20423;49.448;9.056;2022-08-14T01:41:37;17.90;99.90
34147;DHT22;20423;49.448;9.056;2022-08-14T01:44:09;17.90;99.90
34147;DHT22;20423;49.448;9.056;2022-08-14T01:46:38;17.90;99.90
34147;DHT22;20423;49.448;9.056;2022-08-14T01:49:07;17.90;99.90
34147;DHT22;20423;49.448;9.056;2022-08-14T01:51:34;17.90;99.90
34147;DHT22;20423;49.448;9.056;2022-08-14T01:54:04;17.80;99.90
34147;DHT22;20423;49.448;9.056;2022-08-14T01:56:32;17.80;99.90
34147;DHT22;20423;49.448;9.056;2022-08-14T01:59:07;17.70;99.90
34147;DHT22;20423;49.448;9.056;2022-08-14T02:01:34;17.80;99.90
34147;DHT22;20423;49.448;9.056;2022-08-14T02:04:01;17.80;99.90
34147;DHT22;20423;49.448;9.056;2022-08-14T02:06:28;17.80;99.90
34147;DHT22;20423;49.448;9.056;2022-08-14T02:08:55;17.80;99.90
34147;DHT22;20423;49.448;9.056;2022-08-14T02:11:22;17.80;99.90
34147;DHT22;20423;49.448;9.056;2022-08-14T02:13:53;17.80;99.90
34147;DHT22;20423;49.448;9.056;2022-08-14T02:16:26;17.90;99.90
34147;DHT22;20423;49.448;9.056;2022-08-14T02:18:56;17.80;99.90
34147;DHT22;20423;49.448;9.056;2022-08-14T02:21:22;17.70;99.90
34147;DHT22;20423;49.448;9.056;2022-08-14T02:23:50;17.70;99.90
34147;DHT22;20423;49.448;9.056;2022-08-14T02:26:20;17.80;99.90
34147;DHT22;20423;49.448;9.056;2022-08-14T02:28:48;17.80;99.90
34147;DHT22;20423;49.448;9.056;2022-08-14T02:31:14;17.70;99.90
34147;DHT22;20423;49.448;9.056;2022-08-14T02:33:40;17.60;99.90
34147;DHT22;20423;49.448;9.056;2022-08-14T02:36:07;17.60;99.90
34147;DHT22;20423;49.448;9.056;2022-08-14T02:38:34;17.60;99.90
34147;DHT22;20423;49.448;9.056;2022-08-14T02:41:00;17.50;99.90
34147;DHT22;20423;49.448;9.056;2022-08-14T02:43:26;17.50;99.90
34147;DHT22;20423;49.448;9.056;2022-08-14T02:45:55;17.60;99.90
34147;DHT22;20423;49.448;9.056;2022-08-14T02:48:21;17.40;99.90
34147;DHT22;20423;49.448;9.056;2022-08-14T02:50:47;17.40;99.90
34147;DHT22;20423;49.448;9.056;2022-08-14T02:53:13;17.40;99.90
34147;DHT22;20423;49.448;9.056;2022-08-14T02:55:41;17.30;99.90
34147;DHT22;20423;49.448;9.056;2022-08-14T02:58:08;17.20;99.90
34147;DHT22;20423;49.448;9.056;2022-08-14T03:00:34;17.10;99.90
34147;DHT22;20423;49.448;9.056;2022-08-14T03:03:01;17.10;99.90
34147;DHT22;20423;49.448;9.056;2022-08-14T03:05:27;17.10;99.90
34147;DHT22;20423;49.448;9.056;2022-08-14T03:08:12;17.00;99.90
34147;DHT22;20423;49.448;9.056;2022-08-14T03:10:38;17.00;99.90
34147;DHT22;20423;49.448;9.056;2022-08-14T03:13:03;16.90;99.90
34147;DHT22;20423;49.448;9.056;2022-08-14T03:15:31;16.80;99.90
34147;DHT22;20423;49.448;9.056;2022-08-14T03:17:59;16.80;99.90
34147;DHT22;20423;49.448;9.056;2022-08-14T03:20:28;16.80;99.90
34147;DHT22;20423;49.448;9.056;2022-08-14T03:22:56;16.60;99.90
34147;DHT22;20423;49.448;9.056;2022-08-14T03:25:24;16.60;99.90
34147;DHT22;20423;49.448;9.056;2022-08-14T03:27:50;16.60;99.90
34147;DHT22;20423;49.448;9.056;2022-08-14T03:30:15;16.50;99.90
34147;DHT22;20423;49.448;9.056;2022-08-14T03:32:41;16.50;99.90
34147;DHT22;20423;49.448;9.056;2022-08-14T03:35:08;16.50;99.90
34147;DHT22;20423;49.448;9.056;2022-08-14T03:37:36;16.50;99.90
34147;DHT22;20423;49.448;9.056;2022-08-14T03:40:03;16.50;99.90
34147;DHT22;20423;49.448;9.056;2022-08-14T03:42:29;16.40;99.90
34147;DHT22;20423;49.448;9.056;2022-08-14T03:44:55;16.40;99.90
34147;DHT22;20423;49.448;9.056;2022-08-14T03:47:22;16.30;99.90
34147;DHT22;20423;49.448;9.056;2022-08-14T03:49:47;16.30;99.90
34147;DHT22;20423;49.448;9.056;2022-08-14T03:52:13;16.20;99.90
34147;DHT22;20423;49.448;9.056;2022-08-14T03:54:39;16.20;99.90
34147;DHT22;20423;49.448;9.056;2022-08-14T03:57:04;16.20;99.90
34147;DHT22;20423;49.448;9.056;2022-08-14T03:59:31;16.20;99.90
34147;DHT22;20423;49.448;9.056;2022-08-14T04:01:57;16.20;99.90
34147;DHT22;20423;49.448;9.056;2022-08-14T04:04:22;16.20;99.90
34147;DHT22;20423;49.448;9.056;2022-08-14T04:06:48;16.20;99.90
34147;DHT22;20423;49.448;9.056;2022-08-14T04:09:16;16.10;99.90
34147;DHT22;20423;49.448;9.056;2022-08-14T04:11:41;16.00;99.90
34147;DHT22;20423;49.448;9.056;2022-08-14T04:14:08;15.90;99.90
34147;DHT22;20423;49.448;9.056;2022-08-14T04:16:33;15.90;99.90
34147;DHT22;20423;49.448;9.056;2022-08-14T04:19:00;15.80;99.90
34147;DHT22;20423;49.448;9.056;2022-08-14T04:21:29;15.80;99.90
34147;DHT22;20423;49.448;9.056;2022-08-14T04:23:57;15.70;99.90
34147;DHT22;20423;49.448;9.056;2022-08-14T04:26:25;15.70;99.90
34147;DHT22;20423;49.448;9.056;2022-08-14T04:28:52;15.70;99.90
34147;DHT22;20423;49.448;9.056;2022-08-14T04:31:19;15.80;99.90
34147;DHT22;20423;49.448;9.056;2022-08-14T04:33:46;15.90;99.90
34147;DHT22;20423;49.448;9.056;2022-08-14T04:36:13;16.00;99.90
34147;DHT22;20423;49.448;9.056;2022-08-14T04:38:39;16.00;99.90
34147;DHT22;20423;49.448;9.056;2022-08-14T04:41:23;16.10;99.90
34147;DHT22;20423;49.448;9.056;2022-08-14T04:44:18;16.10;99.90
34147;DHT22;20423;49.448;9.056;2022-08-14T04:46:44;16.10;99.90
34147;DHT22;20423;49.448;9.056;2022-08-14T04:49:29;16.10;99.90
34147;DHT22;20423;49.448;9.056;2022-08-14T04:51:55;16.10;99.90
34147;DHT22;20423;49.448;9.056;2022-08-14T04:54:24;16.10;99.90
34147;DHT22;20423;49.448;9.056;2022-08-14T04:56:52;16.10;99.90
34147;DHT22;20423;49.448;9.056;2022-08-14T04:59:19;16.10;99.90
34147;DHT22;20423;49.448;9.056;2022-08-14T05:01:45;16.10;99.90
34147;DHT22;20423;49.448;9.056;2022-08-14T05:04:11;16.10;99.90
34147;DHT22;20423;49.448;9.056;2022-08-14T05:06:37;16.20;99.90
34147;DHT22;20423;49.448;9.056;2022-08-14T05:09:04;16.20;99.90
34147;DHT22;20423;49.448;9.056;2022-08-14T05:11:30;16.20;99.90
34147;DHT22;20423;49.448;9.056;2022-08-14T05:13:58;16.30;99.90
34147;DHT22;20423;49.448;9.056;2022-08-14T05:16:26;16.30;99.90
34147;DHT22;20423;49.448;9.056;2022-08-14T05:18:57;16.30;99.90
34147;DHT22;20423;49.448;9.056;2022-08-14T05:21:22;16.40;99.90
34147;DHT22;20423;49.448;9.056;2022-08-14T05:23:49;16.40;99.90
34147;DHT22;20423;49.448;9.056;2022-08-14T05:26:16;16.40;99.90
34147;DHT22;20423;49.448;9.056;2022-08-14T05:28:43;16.40;99.90
34147;DHT22;20423;49.448;9.056;2022-08-14T05:31:12;16.50;99.90
34147;DHT22;20423;49.448;9.056;2022-08-14T05:33:39;16.50;99.90
34147;DHT22;20423;49.448;9.056;2022-08-14T05:36:06;16.60;99.90
34147;DHT22;20423;49.448;9.056;2022-08-14T05:38:35;16.80;99.90
34147;DHT22;20423;49.448;9.056;2022-08-14T05:41:07;16.90;99.90
34147;DHT22;20423;49.448;9.056;2022-08-14T05:43:33;17.00;99.90
34147;DHT22;20423;49.448;9.056;2022-08-14T05:45:59;17.20;99.90
34147;DHT22;20423;49.448;9.056;2022-08-14T05:48:26;17.30;99.90
34147;DHT22;20423;49.448;9.056;2022-08-14T05:50:53;17.40;99.90
34147;DHT22;20423;49.448;9.056;2022-08-14T05:53:24;17.50;99.90
34147;DHT22;20423;49.448;9.056;2022-08-14T05:55:51;17.70;99.90
34147;DHT22;20423;49.448;9.056;2022-08-14T05:58:18;17.90;99.90
34147;DHT22;20423;49.448;9.056;2022-08-14T06:00:44;18.10;99.90
34147;DHT22;20423;49.448;9.056;2022-08-14T06:03:13;18.20;99.90
34147;DHT22;20423;49.448;9.056;2022-08-14T06:05:42;18.40;99.90
34147;DHT22;20423;49.448;9.056;2022-08-14T06:08:26;18.60;99.90
34147;DHT22;20423;49.448;9.056;2022-08-14T06:10:54;18.70;99.90
34147;DHT22;20423;49.448;9.056;2022-08-14T06:13:20;18.80;99.90
34147;DHT22;20423;49.448;9.056;2022-08-14T06:15:47;18.90;99.90
34147;DHT22;20423;49.448;9.056;2022-08-14T06:18:15;19.10;99.90
34147;DHT22;20423;49.448;9.056;2022-08-14T06:20:41;19.20;99.90
34147;DHT22;20423;49.448;9.056;2022-08-14T06:23:07;19.40;99.90
34147;DHT22;20423;49.448;9.056;2022-08-14T06:25:33;19.50;99.90
34147;DHT22;20423;49.448;9.056;2022-08-14T06:27:59;19.70;99.90
34147;DHT22;20423;49.448;9.056;2022-08-14T06:30:28;19.90;99.90
34147;DHT22;20423;49.448;9.056;2022-08-14T06:32:54;20.00;99.90
34147;DHT22;20423;49.448;9.056;2022-08-14T06:35:20;20.10;99.90
34147;DHT22;20423;49.448;9.056;2022-08-14T06:37:52;20.20;99.90
34147;DHT22;20423;49.448;9.056;2022-08-14T06:40:21;20.40;99.90
34147;DHT22;20423;49.448;9.056;2022-08-14T06:42:47;20.50;99.90
34147;DHT22;20423;49.448;9.056;2022-08-14T06:45:13;20.60;99.90
34147;DHT22;20423;49.448;9.056;2022-08-14T06:47:40;20.70;99.90
34147;DHT22;20423;49.448;9.056;2022-08-14T06:50:09;20.80;99.90
34147;DHT22;20423;49.448;9.056;2022-08-14T06:52:36;21.00;99.90
34147;DHT22;20423;49.448;9.056;2022-08-14T06:55:03;21.10;99.90
34147;DHT22;20423;49.448;9.056;2022-08-14T06:57:40;21.10;99.90
34147;DHT22;20423;49.448;9.056;2022-08-14T07:00:09;21.20;99.90
34147;DHT22;20423;49.448;9.056;2022-08-14T07:02:35;21.30;99.90
34147;DHT22;20423;49.448;9.056;2022-08-14T07:05:20;21.40;99.90
34147;DHT22;20423;49.448;9.056;2022-08-14T07:08:04;21.50;99.90
34147;DHT22;20423;49.448;9.056;2022-08-14T07:10:31;21.60;99.90
34147;DHT22;20423;49.448;9.056;2022-08-14T07:12:57;21.70;99.90
34147;DHT22;20423;49.448;9.056;2022-08-14T07:15:24;21.80;99.90
34147;DHT22;20423;49.448;9.056;2022-08-14T07:17:50;21.90;99.90
34147;DHT22;20423;49.448;9.056;2022-08-14T07:20:16;22.00;99.90
34147;DHT22;20423;49.448;9.056;2022-08-14T07:22:46;22.10;99.90
34147;DHT22;20423;49.448;9.056;2022-08-14T07:25:12;22.10;99.90
34147;DHT22;20423;49.448;9.056;2022-08-14T07:27:39;22.20;99.90
34147;DHT22;20423;49.448;9.056;2022-08-14T07:30:05;22.30;99.90
34147;DHT22;20423;49.448;9.056;2022-08-14T07:32:31;22.40;99.90
34147;DHT22;20423;49.448;9.056;2022-08-14T07:34:57;22.40;99.90
34147;DHT22;20423;49.448;9.056;2022-08-14T07:37:23;22.50;99.90
34147;DHT22;20423;49.448;9.056;2022-08-14T07:39:49;22.50;99.90
34147;DHT22;20423;49.448;9.056;2022-08-14T07:42:15;22.70;99.90
34147;DHT22;20423;49.448;9.056;2022-08-14T07:44:41;22.70;99.90
34147;DHT22;20423;49.448;9.056;2022-08-14T07:47:07;22.80;99.90
34147;DHT22;20423;49.448;9.056;2022-08-14T07:49:33;22.90;99.90
34147;DHT22;20423;49.448;9.056;2022-08-14T07:52:00;23.00;99.90
34147;DHT22;20423;49.448;9.056;2022-08-14T07:54:26;23.10;99.90
34147;DHT22;20423;49.448;9.056;2022-08-14T07:56:52;23.20;99.90
34147;DHT22;20423;49.448;9.056;2022-08-14T07:59:18;23.30;99.90
34147;DHT22;20423;49.448;9.056;2022-08-14T08:01:47;23.40;99.90
34147;DHT22;20423;49.448;9.056;2022-08-14T08:04:14;23.50;99.90
34147;DHT22;20423;49.448;9.056;2022-08-14T08:06:40;23.50;99.90
34147;DHT22;20423;49.448;9.056;2022-08-14T08:09:07;23.50;99.90
34147;DHT22;20423;49.448;9.056;2022-08-14T08:11:34;23.50;99.90
34147;DHT22;20423;49.448;9.056;2022-08-14T08:14:03;23.60;99.90
34147;DHT22;20423;49.448;9.056;2022-08-14T08:16:33;23.60;99.90
34147;DHT22;20423;49.448;9.056;2022-08-14T08:19:01;23.70;99.90
34147;DHT22;20423;49.448;9.056;2022-08-14T08:21:26;23.80;99.90
34147;DHT22;20423;49.448;9.056;2022-08-14T08:23:52;23.90;99.90
34147;DHT22;20423;49.448;9.056;2022-08-14T08:26:18;23.90;99.90
34147;DHT22;20423;49.448;9.056;2022-08-14T08:28:55;23.90;99.90
34147;DHT22;20423;49.448;9.056;2022-08-14T08:31:21;24.10;99.90
34147;DHT22;20423;49.448;9.056;2022-08-14T08:33:51;24.20;99.90
34147;DHT22;20423;49.448;9.056;2022-08-14T08:36:17;24.40;98.70
34147;DHT22;20423;49.448;9.056;2022-08-14T08:38:43;24.60;97.70
34147;DHT22;20423;49.448;9.056;2022-08-14T08:41:12;24.60;97.80
34147;DHT22;20423;49.448;9.056;2022-08-14T08:43:38;24.70;96.60
34147;DHT22;20423;49.448;9.056;2022-08-14T08:46:06;25.30;96.40
34147;DHT22;20423;49.448;9.056;2022-08-14T08:51:23;27.80;93.70
34147;DHT22;20423;49.448;9.056;2022-08-14T08:56:41;29.20;87.90
34147;DHT22;20423;49.448;9.056;2022-08-14T08:59:24;29.40;84.40
34147;DHT22;20423;49.448;9.056;2022-08-14T09:02:24;30.10;80.70
34147;DHT22;20423;49.448;9.056;2022-08-14T09:04:49;30.30;76.20
34147;DHT22;20423;49.448;9.056;2022-08-14T09:07:15;31.00;73.40
34147;DHT22;20423;49.448;9.056;2022-08-14T09:09:43;31.70;70.60
34147;DHT22;20423;49.448;9.056;2022-08-14T09:12:18;31.80;69.60
34147;DHT22;20423;49.448;9.056;2022-08-14T09:14:44;32.20;61.60
34147;DHT22;20423;49.448;9.056;2022-08-14T09:17:13;31.60;58.10
34147;DHT22;20423;49.448;9.056;2022-08-14T09:19:40;32.10;62.50
34147;DHT22;20423;49.448;9.056;2022-08-14T09:22:06;33.00;61.30
34147;DHT22;20423;49.448;9.056;2022-08-14T09:24:32;33.60;57.80
34147;DHT22;20423;49.448;9.056;2022-08-14T09:26:58;32.50;55.70
34147;DHT22;20423;49.448;9.056;2022-08-14T09:29:24;32.50;56.30
34147;DHT22;20423;49.448;9.056;2022-08-14T09:31:55;33.00;55.80
34147;DHT22;20423;49.448;9.056;2022-08-14T09:35:02;33.20;54.80
34147;DHT22;20423;49.448;9.056;2022-08-14T09:37:48;32.60;55.60
34147;DHT22;20423;49.448;9.056;2022-08-14T09:43:13;32.40;55.30
34147;DHT22;20423;49.448;9.056;2022-08-14T09:45:47;32.90;55.00
34147;DHT22;20423;49.448;9.056;2022-08-14T09:48:19;33.00;55.00
34147;DHT22;20423;49.448;9.056;2022-08-14T09:50:50;32.70;55.60
34147;DHT22;20423;49.448;9.056;2022-08-14T09:53:38;32.70;54.90
34147;DHT22;20423;49.448;9.056;2022-08-14T09:56:07;32.60;54.80
34147;DHT22;20423;49.448;9.056;2022-08-14T09:58:39;32.60;55.30
34147;DHT22;20423;49.448;9.056;2022-08-14T10:01:16;32.30;55.80
34147;DHT22;20423;49.448;9.056;2022-08-14T10:03:48;31.90;56.00
34147;DHT22;20423;49.448;9.056;2022-08-14T10:06:17;31.60;56.40
34147;DHT22;20423;49.448;9.056;2022-08-14T10:08:45;31.30;57.10
34147;DHT22;20423;49.448;9.056;2022-08-14T10:11:17;31.10;56.60
34147;DHT22;20423;49.448;9.056;2022-08-14T10:13:45;31.10;57.30
34147;DHT22;20423;49.448;9.056;2022-08-14T10:16:11;30.70;57.60
34147;DHT22;20423;49.448;9.056;2022-08-14T10:18:39;30.70;57.90
34147;DHT22;20423;49.448;9.056;2022-08-14T10:21:08;30.90;57.70
34147;DHT22;20423;49.448;9.056;2022-08-14T10:23:45;31.10;57.50
34147;DHT22;20423;49.448;9.056;2022-08-14T10:26:16;31.50;57.30
34147;DHT22;20423;49.448;9.056;2022-08-14T10:28:48;31.40;57.70
34147;DHT22;20423;49.448;9.056;2022-08-14T10:31:31;31.20;57.60
34147;DHT22;20423;49.448;9.056;2022-08-14T10:34:06;31.00;57.70
34147;DHT22;20423;49.448;9.056;2022-08-14T10:36:38;31.20;57.60
34147;DHT22;20423;49.448;9.056;2022-08-14T10:39:15;31.30;58.10
34147;DHT22;20423;49.448;9.056;2022-08-14T10:41:42;31.70;57.00
34147;DHT22;20423;49.448;9.056;2022-08-14T10:44:12;32.20;55.70
34147;DHT22;20423;49.448;9.056;2022-08-14T10:46:40;32.40;55.80
34147;DHT22;20423;49.448;9.056;2022-08-14T10:49:19;32.20;56.70
34147;DHT22;20423;49.448;9.056;2022-08-14T10:52:05;31.90;56.80
34147;DHT22;20423;49.448;9.056;2022-08-14T10:54:39;32.10;56.70
34147;DHT22;20423;49.448;9.056;2022-08-14T10:57:12;32.30;56.40
34147;DHT22;20423;49.448;9.056;2022-08-14T10:59:54;32.20;56.60
34147;DHT22;20423;49.448;9.056;2022-08-14T11:02:35;31.90;57.30
34147;DHT22;20423;49.448;9.056;2022-08-14T11:05:05;31.60;57.20
34147;DHT22;20423;49.448;9.056;2022-08-14T11:07:37;31.80;57.00
34147;DHT22;20423;49.448;9.056;2022-08-14T11:10:12;31.00;57.60
34147;DHT22;20423;49.448;9.056;2022-08-14T11:12:44;30.70;58.70
34147;DHT22;20423;49.448;9.056;2022-08-14T11:15:17;31.30;58.70
34147;DHT22;20423;49.448;9.056;2022-08-14T11:17:43;31.80;57.50
34147;DHT22;20423;49.448;9.056;2022-08-14T11:20:12;32.30;57.20
34147;DHT22;20423;49.448;9.056;2022-08-14T11:22:39;32.60;57.00
34147;DHT22;20423;49.448;9.056;2022-08-14T11:25:11;32.80;56.00
34147;DHT22;20423;49.448;9.056;2022-08-14T11:27:43;33.00;56.10
34147;DHT22;20423;49.448;9.056;2022-08-14T11:30:12;32.80;56.50
34147;DHT22;20423;49.448;9.056;2022-08-14T11:32:40;33.50;56.60
34147;DHT22;20423;49.448;9.056;2022-08-14T11:35:11;33.70;55.50
34147;DHT22;20423;49.448;9.056;2022-08-14T11:40:23;33.70;55.20
34147;DHT22;20423;49.448;9.056;2022-08-14T11:42:51;33.20;55.20
34147;DHT22;20423;49.448;9.056;2022-08-14T11:45:21;33.00;55.00
34147;DHT22;20423;49.448;9.056;2022-08-14T11:47:47;33.00;55.20
34147;DHT22;20423;49.448;9.056;2022-08-14T11:50:15;33.40;55.10
34147;DHT22;20423;49.448;9.056;2022-08-14T11:52:42;33.10;54.90
34147;DHT22;20423;49.448;9.056;2022-08-14T11:55:10;33.10;55.10
34147;DHT22;20423;49.448;9.056;2022-08-14T11:57:38;32.90;54.10
34147;DHT22;20423;49.448;9.056;2022-08-14T12:00:13;32.90;53.80
34147;DHT22;20423;49.448;9.056;2022-08-14T12:02:52;32.80;52.70
34147;DHT22;20423;49.448;9.056;2022-08-14T12:05:34;33.00;51.80
34147;DHT22;20423;49.448;9.056;2022-08-14T12:08:01;33.10;52.10
34147;DHT22;20423;49.448;9.056;2022-08-14T12:10:27;32.50;53.00
34147;DHT22;20423;49.448;9.056;2022-08-14T12:12:57;32.40;53.10
34147;DHT22;20423;49.448;9.056;2022-08-14T12:15:32;32.50;52.30
34147;DHT22;20423;49.448;9.056;2022-08-14T12:17:58;32.40;52.80
34147;DHT22;20423;49.448;9.056;2022-08-14T12:20:34;32.30;53.10
34147;DHT22;20423;49.448;9.056;2022-08-14T12:23:04;32.50;53.70
34147;DHT22;20423;49.448;9.056;2022-08-14T12:25:30;32.20;54.30
34147;DHT22;20423;49.448;9.056;2022-08-14T12:27:57;31.80;53.40
34147;DHT22;20423;49.448;9.056;2022-08-14T12:30:40;31.90;53.50
34147;DHT22;20423;49.448;9.056;2022-08-14T12:33:29;32.00;53.30
34147;DHT22;20423;49.448;9.056;2022-08-14T12:36:02;32.10;53.60
34147;DHT22;20423;49.448;9.056;2022-08-14T12:38:32;31.90;54.20
34147;DHT22;20423;49.448;9.056;2022-08-14T12:40:58;32.00;53.60
34147;DHT22;20423;49.448;9.056;2022-08-14T12:43:23;31.60;54.60
34147;DHT22;20423;49.448;9.056;2022-08-14T12:45:51;31.50;53.80
34147;DHT22;20423;49.448;9.056;2022-08-14T12:48:21;32.00;54.00
34147;DHT22;20423;49.448;9.056;2022-08-14T12:50:48;32.60;53.30
34147;DHT22;20423;49.448;9.056;2022-08-14T12:53:17;32.70;51.80
34147;DHT22;20423;49.448;9.056;2022-08-14T12:55:44;32.60;52.20
34147;DHT22;20423;49.448;9.056;2022-08-14T12:58:10;33.00;51.60
34147;DHT22;20423;49.448;9.056;2022-08-14T13:00:46;33.20;51.50
34147;DHT22;20423;49.448;9.056;2022-08-14T13:03:26;33.30;51.00
34147;DHT22;20423;49.448;9.056;2022-08-14T13:05:53;33.00;50.80
34147;DHT22;20423;49.448;9.056;2022-08-14T13:08:19;33.40;51.30
34147;DHT22;20423;49.448;9.056;2022-08-14T13:10:48;33.00;50.40
34147;DHT22;20423;49.448;9.056;2022-08-14T13:13:17;33.10;51.30
34147;DHT22;20423;49.448;9.056;2022-08-14T13:15:45;33.10;50.40
34147;DHT22;20423;49.448;9.056;2022-08-14T13:18:14;33.30;48.40
34147;DHT22;20423;49.448;9.056;2022-08-14T13:20:40;33.40;48.40
34147;DHT22;20423;49.448;9.056;2022-08-14T13:23:07;33.40;49.40
34147;DHT22;20423;49.448;9.056;2022-08-14T13:25:35;33.10;49.50
34147;DHT22;20423;49.448;9.056;2022-08-14T13:28:05;33.10;49.80
34147;DHT22;20423;49.448;9.056;2022-08-14T13:30:33;33.40;49.90
34147;DHT22;20423;49.448;9.056;2022-08-14T13:32:59;33.60;48.80
34147;DHT22;20423;49.448;9.056;2022-08-14T13:35:26;32.80;49.00
34147;DHT22;20423;49.448;9.056;2022-08-14T13:37:52;33.00;49.60
34147;DHT22;20423;49.448;9.056;2022-08-14T13:40:20;33.10;49.30
34147;DHT22;20423;49.448;9.056;2022-08-14T13:42:48;33.40;49.20
34147;DHT22;20423;49.448;9.056;2022-08-14T13:45:17;34.00;48.90
34147;DHT22;20423;49.448;9.056;2022-08-14T13:47:44;34.00;47.70
34147;DHT22;20423;49.448;9.056;2022-08-14T13:50:12;33.60;48.30
34147;DHT22;20423;49.448;9.056;2022-08-14T13:52:45;33.00;49.20
34147;DHT22;20423;49.448;9.056;2022-08-14T13:55:17;32.90;49.10
34147;DHT22;20423;49.448;9.056;2022-08-14T13:57:43;32.90;49.30
34147;DHT22;20423;49.448;9.056;2022-08-14T14:00:12;32.80;49.50
34147;DHT22;20423;49.448;9.056;2022-08-14T14:02:42;32.10;49.10
34147;DHT22;20423;49.448;9.056;2022-08-14T14:05:09;31.70;49.20
34147;DHT22;20423;49.448;9.056;2022-08-14T14:07:37;31.50;49.70
34147;DHT22;20423;49.448;9.056;2022-08-14T14:10:07;31.80;49.70
34147;DHT22;20423;49.448;9.056;2022-08-14T14:12:34;31.70;49.60
34147;DHT22;20423;49.448;9.056;2022-08-14T14:15:06;31.30;51.00
34147;DHT22;20423;49.448;9.056;2022-08-14T14:17:36;31.10;50.70
34147;DHT22;20423;49.448;9.056;2022-08-14T14:20:05;30.80;51.00
34147;DHT22;20423;49.448;9.056;2022-08-14T14:22:31;30.70;51.40
34147;DHT22;20423;49.448;9.056;2022-08-14T14:24:57;30.50;51.00
34147;DHT22;20423;49.448;9.056;2022-08-14T14:27:25;30.50;51.30
34147;DHT22;20423;49.448;9.056;2022-08-14T14:29:57;30.70;51.10
34147;DHT22;20423;49.448;9.056;2022-08-14T14:32:48;30.80;51.00
34147;DHT22;20423;49.448;9.056;2022-08-14T14:35:15;30.80;50.80
34147;DHT22;20423;49.448;9.056;2022-08-14T14:37:42;30.80;50.40
34147;DHT22;20423;49.448;9.056;2022-08-14T14:40:10;31.00;51.30
34147;DHT22;20423;49.448;9.056;2022-08-14T14:42:46;31.00;50.40
34147;DHT22;20423;49.448;9.056;2022-08-14T14:45:15;31.00;50.90
34147;DHT22;20423;49.448;9.056;2022-08-14T14:47:48;30.70;50.90
34147;DHT22;20423;49.448;9.056;2022-08-14T14:50:16;30.70;51.30
34147;DHT22;20423;49.448;9.056;2022-08-14T14:52:42;30.70;51.10
34147;DHT22;20423;49.448;9.056;2022-08-14T14:55:09;30.70;51.60
34147;DHT22;20423;49.448;9.056;2022-08-14T14:57:37;30.60;50.80
34147;DHT22;20423;49.448;9.056;2022-08-14T15:00:09;30.70;51.50
34147;DHT22;20423;49.448;9.056;2022-08-14T15:02:42;31.00;51.20
34147;DHT22;20423;49.448;9.056;2022-08-14T15:05:08;30.90;51.40
34147;DHT22;20423;49.448;9.056;2022-08-14T15:07:35;31.00;50.30
34147;DHT22;20423;49.448;9.056;2022-08-14T15:10:05;31.20;50.30
34147;DHT22;20423;49.448;9.056;2022-08-14T15:12:31;31.20;49.90
34147;DHT22;20423;49.448;9.056;2022-08-14T15:14:57;31.00;49.20
34147;DHT22;20423;49.448;9.056;2022-08-14T15:17:24;31.30;49.80
34147;DHT22;20423;49.448;9.056;2022-08-14T15:19:50;31.80;48.90
34147;DHT22;20423;49.448;9.056;2022-08-14T15:22:16;32.30;48.50
34147;DHT22;20423;49.448;9.056;2022-08-14T15:24:42;32.50;48.80
34147;DHT22;20423;49.448;9.056;2022-08-14T15:27:08;32.50;48.50
34147;DHT22;20423;49.448;9.056;2022-08-14T15:29:35;32.30;48.70
34147;DHT22;20423;49.448;9.056;2022-08-14T15:32:04;32.10;48.30
34147;DHT22;20423;49.448;9.056;2022-08-14T15:34:31;32.10;48.10
34147;DHT22;20423;49.448;9.056;2022-08-14T15:36:57;32.00;48.80
34147;DHT22;20423;49.448;9.056;2022-08-14T15:39:22;32.10;48.70
34147;DHT22;20423;49.448;9.056;2022-08-14T15:41:48;31.80;49.00
34147;DHT22;20423;49.448;9.056;2022-08-14T15:44:14;31.70;49.20
34147;DHT22;20423;49.448;9.056;2022-08-14T15:46:40;32.30;49.20
34147;DHT22;20423;49.448;9.056;2022-08-14T15:49:06;33.10;48.50
34147;DHT22;20423;49.448;9.056;2022-08-14T15:51:33;33.40;47.20